sim
Sign-in with your pilot id or email,
or register
Callsign
Passwort

Schedule Details

Flight Number: DLH2184
Departure: Munich Airport (EDDM) at 11:10
Arrival: Hamburg Airport (EDDH) at 12:30
Route: Lufthansa Passenger Schedule. Enter filed route here before submitting Pirep.

Weather Information
Getting current METAR information for EDDM 250350Z 21005KT 9999 -RA SCT040 13/12 Q1001 NOSIG
Getting current METAR information for EDDH 250350Z 14008KT 9999 BKN040 14/10 Q0996 NOSIG

Schedule Frequency

Route Map